sensor_id;sensor_type;location;lat;lon;timestamp;pressure;altitude;pressure_sealevel;temperature;humidity
63665;BME280;49820;33.966;73.390;2023-08-12T04:56:09;78661.53;;;27.38;88.74
63665;BME280;49820;33.966;73.390;2023-08-12T04:58:39;78648.13;;;27.60;86.42
63665;BME280;49820;33.966;73.390;2023-08-12T05:01:10;78654.41;;;27.93;83.84
63665;BME280;49820;33.966;73.390;2023-08-12T05:03:39;78651.66;;;26.98;89.58
63665;BME280;49820;33.966;73.390;2023-08-12T05:06:10;78650.88;;;26.46;100.00
63665;BME280;49820;33.966;73.390;2023-08-12T05:08:39;78660.31;;;26.83;92.62
63665;BME280;49820;33.966;73.390;2023-08-12T05:11:10;78653.13;;;27.49;92.31
63665;BME280;49820;33.966;73.390;2023-08-12T05:13:39;78654.47;;;26.62;100.00
63665;BME280;49820;33.966;73.390;2023-08-12T05:16:09;78656.22;;;26.48;91.46
63665;BME280;49820;33.966;73.390;2023-08-12T05:18:38;78653.94;;;27.21;97.70
63665;BME280;49820;33.966;73.390;2023-08-12T05:21:07;78665.56;;;27.73;85.85
63665;BME280;49820;33.966;73.390;2023-08-12T05:23:36;78661.81;;;27.17;95.48
63665;BME280;49820;33.966;73.390;2023-08-12T05:26:05;78654.41;;;27.93;100.00
63665;BME280;49820;33.966;73.390;2023-08-12T05:28:34;78658.16;;;27.63;88.22
63665;BME280;49820;33.966;73.390;2023-08-12T05:31:05;78654.25;;;27.09;85.90
63665;BME280;49820;33.966;73.390;2023-08-12T05:33:33;78651.53;;;27.69;90.18
63665;BME280;49820;33.966;73.390;2023-08-12T05:36:03;78661.03;;;27.27;99.21
63665;BME280;49820;33.966;73.390;2023-08-12T05:38:32;78659.53;;;26.31;95.00
63665;BME280;49820;33.966;73.390;2023-08-12T05:41:01;78656.34;;;26.46;96.52
63665;BME280;49820;33.966;73.390;2023-08-12T05:43:33;78661.00;;;26.39;96.98
63665;BME280;49820;33.966;73.390;2023-08-12T05:46:02;78666.38;;;27.29;98.29
63665;BME280;49820;33.966;73.390;2023-08-12T05:48:31;78655.16;;;26.88;94.58
63665;BME280;49820;33.966;73.390;2023-08-12T05:51:00;78666.53;;;27.87;95.00
63665;BME280;49820;33.966;73.390;2023-08-12T05:53:29;78653.88;;;28.07;83.79
63665;BME280;49820;33.966;73.390;2023-08-12T05:55:58;78648.44;;;28.48;82.75
63665;BME280;49820;33.966;73.390;2023-08-12T05:58:27;78662.50;;;29.59;78.65
63665;BME280;49820;33.966;73.390;2023-08-12T06:00:57;78664.53;;;28.29;80.18
63665;BME280;49820;33.966;73.390;2023-08-12T06:03:27;78658.66;;;28.41;84.37
63665;BME280;49820;33.966;73.390;2023-08-12T06:05:57;78654.28;;;29.74;77.71
63665;BME280;49820;33.966;73.390;2023-08-12T06:08:25;78658.53;;;30.12;80.81
63665;BME280;49820;33.966;73.390;2023-08-12T06:10:54;78652.72;;;31.07;75.50
63665;BME280;49820;33.966;73.390;2023-08-12T06:13:24;78650.88;;;30.52;69.59
63665;BME280;49820;33.966;73.390;2023-08-12T06:15:53;78656.47;;;30.43;69.65
63665;BME280;49820;33.966;73.390;2023-08-12T06:18:22;78648.50;;;30.93;68.85
63665;BME280;49820;33.966;73.390;2023-08-12T06:20:51;78655.97;;;32.06;66.07
63665;BME280;49820;33.966;73.390;2023-08-12T06:23:20;78650.59;;;30.93;63.71
63665;BME280;49820;33.966;73.390;2023-08-12T06:25:55;78648.41;;;32.13;64.96
63665;BME280;49820;33.966;73.390;2023-08-12T06:28:24;78662.00;;;31.71;65.60
63665;BME280;49820;33.966;73.390;2023-08-12T06:30:54;78660.59;;;30.35;68.94
63665;BME280;49820;33.966;73.390;2023-08-12T06:33:23;78649.69;;;30.03;73.92
63665;BME280;49820;33.966;73.390;2023-08-12T06:35:52;78662.56;;;29.50;72.38
63665;BME280;49820;33.966;73.390;2023-08-12T06:38:21;78649.78;;;30.10;86.83
63665;BME280;49820;33.966;73.390;2023-08-12T06:40:50;78648.13;;;30.67;67.34
63665;BME280;49820;33.966;73.390;2023-08-12T06:43:20;78612.06;;;29.84;68.25
63665;BME280;49820;33.966;73.390;2023-08-12T06:45:49;78647.75;;;29.78;73.34
63665;BME280;49820;33.966;73.390;2023-08-12T06:48:18;78635.94;;;30.33;80.93
63665;BME280;49820;33.966;73.390;2023-08-12T06:50:53;78628.44;;;28.82;71.52
63665;BME280;49820;33.966;73.390;2023-08-12T06:53:24;78639.38;;;30.95;77.10
63665;BME280;49820;33.966;73.390;2023-08-12T06:55:53;78620.00;;;31.77;64.09
63665;BME280;49820;33.966;73.390;2023-08-12T06:58:23;78637.97;;;32.35;65.50
63665;BME280;49820;33.966;73.390;2023-08-12T07:00:52;78634.50;;;30.65;64.29
63665;BME280;49820;33.966;73.390;2023-08-12T07:03:23;78641.88;;;30.60;71.88
63665;BME280;49820;33.966;73.390;2023-08-12T07:05:53;78620.41;;;29.76;70.73
63665;BME280;49820;33.966;73.390;2023-08-12T07:08:23;78577.31;;;28.53;80.36
63665;BME280;49820;33.966;73.390;2023-08-12T07:10:52;78616.13;;;28.49;77.25
63665;BME280;49820;33.966;73.390;2023-08-12T07:13:22;78641.75;;;28.13;85.72
63665;BME280;49820;33.966;73.390;2023-08-12T07:15:50;78605.78;;;27.83;84.78
63665;BME280;49820;33.966;73.390;2023-08-12T07:18:19;78634.09;;;27.21;88.30
63665;BME280;49820;33.966;73.390;2023-08-12T07:20:49;78616.19;;;27.05;100.00
63665;BME280;49820;33.966;73.390;2023-08-12T07:23:19;78631.66;;;27.34;86.61
63665;BME280;49820;33.966;73.390;2023-08-12T07:25:47;78622.16;;;26.99;88.55
63665;BME280;49820;33.966;73.390;2023-08-12T07:28:16;78629.28;;;26.42;99.58
63665;BME280;49820;33.966;73.390;2023-08-12T07:30:45;78604.13;;;25.94;100.00
63665;BME280;49820;33.966;73.390;2023-08-12T07:33:15;78621.44;;;26.10;100.00
63665;BME280;49820;33.966;73.390;2023-08-12T07:35:44;78598.69;;;25.66;100.00
63665;BME280;49820;33.966;73.390;2023-08-12T07:38:13;78611.50;;;27.03;95.80
63665;BME280;49820;33.966;73.390;2023-08-12T07:40:42;78609.06;;;28.35;90.31
63665;BME280;49820;33.966;73.390;2023-08-12T07:43:12;78618.78;;;28.66;87.11
63665;BME280;49820;33.966;73.390;2023-08-12T07:45:41;78596.97;;;27.22;83.96
63665;BME280;49820;33.966;73.390;2023-08-12T07:48:15;78611.28;;;27.83;94.88
63665;BME280;49820;33.966;73.390;2023-08-12T07:50:44;78603.72;;;29.06;79.05
63665;BME280;49820;33.966;73.390;2023-08-12T07:53:15;78591.81;;;28.60;82.18
63665;BME280;49820;33.966;73.390;2023-08-12T07:55:44;78599.28;;;28.21;83.75
63665;BME280;49820;33.966;73.390;2023-08-12T07:58:13;78603.72;;;27.75;86.82
63665;BME280;49820;33.966;73.390;2023-08-12T08:00:42;78584.53;;;26.88;88.32
63665;BME280;49820;33.966;73.390;2023-08-12T08:03:11;78606.31;;;27.33;100.00
63665;BME280;49820;33.966;73.390;2023-08-12T08:05:41;78573.25;;;26.92;87.80
63665;BME280;49820;33.966;73.390;2023-08-12T08:08:11;78573.22;;;26.58;88.91
63665;BME280;49820;33.966;73.390;2023-08-12T08:10:42;78576.25;;;26.37;99.59
63665;BME280;49820;33.966;73.390;2023-08-12T08:13:10;78609.00;;;26.11;97.98
63665;BME280;49820;33.966;73.390;2023-08-12T08:15:39;78608.66;;;25.98;100.00
63665;BME280;49820;33.966;73.390;2023-08-12T08:18:08;78576.19;;;25.74;100.00
63665;BME280;49820;33.966;73.390;2023-08-12T08:20:37;78595.56;;;25.90;100.00
63665;BME280;49820;33.966;73.390;2023-08-12T08:23:06;78584.38;;;25.66;100.00
63665;BME280;49820;33.966;73.390;2023-08-12T08:25:35;78576.31;;;26.09;100.00
63665;BME280;49820;33.966;73.390;2023-08-12T08:28:04;78587.19;;;26.28;100.00
63665;BME280;49820;33.966;73.390;2023-08-12T08:30:33;78581.63;;;26.65;100.00
63665;BME280;49820;33.966;73.390;2023-08-12T08:33:02;78591.41;;;25.91;100.00
63665;BME280;49820;33.966;73.390;2023-08-12T08:35:32;78560.53;;;25.28;100.00
63665;BME280;49820;33.966;73.390;2023-08-12T08:38:01;78589.88;;;25.46;100.00
63665;BME280;49820;33.966;73.390;2023-08-12T08:40:30;78579.59;;;25.75;100.00
63665;BME280;49820;33.966;73.390;2023-08-12T08:43:02;78570.38;;;26.15;100.00
63665;BME280;49820;33.966;73.390;2023-08-12T08:45:34;78569.81;;;28.28;100.00
63665;BME280;49820;33.966;73.390;2023-08-12T08:48:05;78566.78;;;27.48;100.00
63665;BME280;49820;33.966;73.390;2023-08-12T08:50:35;78560.78;;;26.42;100.00
63665;BME280;49820;33.966;73.390;2023-08-12T09:16:05;78543.25;;;22.56;100.00
63665;BME280;49820;33.966;73.390;2023-08-12T09:18:37;78555.56;;;22.65;100.00
63665;BME280;49820;33.966;73.390;2023-08-12T09:21:06;78554.91;;;23.27;100.00
63665;BME280;49820;33.966;73.390;2023-08-12T09:23:41;78546.56;;;23.69;100.00
63665;BME280;49820;33.966;73.390;2023-08-12T09:26:18;78542.09;;;24.43;100.00
63665;BME280;49820;33.966;73.390;2023-08-12T09:28:48;78542.47;;;24.94;100.00
63665;BME280;49820;33.966;73.390;2023-08-12T09:31:28;78540.41;;;24.95;100.00
63665;BME280;49820;33.966;73.390;2023-08-12T09:34:00;78526.00;;;24.39;100.00
63665;BME280;49820;33.966;73.390;2023-08-12T09:36:34;78505.03;;;23.88;100.00
63665;BME280;49820;33.966;73.390;2023-08-12T09:39:09;78529.22;;;23.83;100.00
63665;BME280;49820;33.966;73.390;2023-08-12T09:41:39;78525.69;;;23.66;100.00
63665;BME280;49820;33.966;73.390;2023-08-12T09:44:09;78527.97;;;23.42;100.00
63665;BME280;49820;33.966;73.390;2023-08-12T09:46:38;78529.75;;;23.56;100.00
63665;BME280;49820;33.966;73.390;2023-08-12T09:49:07;78501.19;;;23.25;100.00
63665;BME280;49820;33.966;73.390;2023-08-12T09:51:37;78524.94;;;23.56;100.00
63665;BME280;49820;33.966;73.390;2023-08-12T09:54:11;78509.31;;;23.85;100.00
63665;BME280;49820;33.966;73.390;2023-08-12T09:56:49;78519.22;;;23.80;100.00
63665;BME280;49820;33.966;73.390;2023-08-12T09:59:22;78533.88;;;23.85;100.00
63665;BME280;49820;33.966;73.390;2023-08-12T10:01:54;78527.50;;;23.88;100.00
63665;BME280;49820;33.966;73.390;2023-08-12T10:04:29;78512.91;;;24.97;100.00
63665;BME280;49820;33.966;73.390;2023-08-12T10:07:05;78502.69;;;24.59;100.00
63665;BME280;49820;33.966;73.390;2023-08-12T10:09:36;78506.53;;;24.15;100.00
63665;BME280;49820;33.966;73.390;2023-08-12T10:12:07;78514.78;;;24.04;100.00
63665;BME280;49820;33.966;73.390;2023-08-12T10:14:38;78489.66;;;23.74;100.00
63665;BME280;49820;33.966;73.390;2023-08-12T10:17:10;78495.41;;;23.89;100.00
63665;BME280;49820;33.966;73.390;2023-08-12T10:19:44;78494.41;;;24.03;100.00
63665;BME280;49820;33.966;73.390;2023-08-12T10:22:15;78493.31;;;24.09;100.00
63665;BME280;49820;33.966;73.390;2023-08-12T10:24:50;78450.94;;;24.10;100.00
63665;BME280;49820;33.966;73.390;2023-08-12T10:27:20;78494.50;;;25.15;100.00
63665;BME280;49820;33.966;73.390;2023-08-12T10:29:49;78501.53;;;25.84;100.00
63665;BME280;49820;33.966;73.390;2023-08-12T10:32:19;78502.00;;;24.97;100.00
63665;BME280;49820;33.966;73.390;2023-08-12T10:34:57;78487.00;;;24.68;100.00
63665;BME280;49820;33.966;73.390;2023-08-12T10:37:30;78502.59;;;24.69;100.00
63665;BME280;49820;33.966;73.390;2023-08-12T10:40:05;78503.91;;;24.98;100.00
63665;BME280;49820;33.966;73.390;2023-08-12T10:42:48;78503.09;;;26.52;100.00
63665;BME280;49820;33.966;73.390;2023-08-12T10:45:18;78473.41;;;26.20;100.00
63665;BME280;49820;33.966;73.390;2023-08-12T10:50:31;78487.69;;;25.78;100.00
63665;BME280;49820;33.966;73.390;2023-08-12T10:53:27;78477.59;;;25.03;100.00
63665;BME280;49820;33.966;73.390;2023-08-12T10:56:03;78464.72;;;24.46;100.00
63665;BME280;49820;33.966;73.390;2023-08-12T10:58:47;78493.44;;;24.73;100.00
63665;BME280;49820;33.966;73.390;2023-08-12T11:01:19;78479.06;;;24.55;100.00
63665;BME280;49820;33.966;73.390;2023-08-12T11:03:49;78477.50;;;24.39;100.00
63665;BME280;49820;33.966;73.390;2023-08-12T11:06:19;78461.69;;;24.78;100.00
63665;BME280;49820;33.966;73.390;2023-08-12T11:08:52;78483.16;;;24.73;100.00
63665;BME280;49820;33.966;73.390;2023-08-12T11:11:23;78476.28;;;24.47;100.00
63665;BME280;49820;33.966;73.390;2023-08-12T11:13:58;78476.38;;;24.64;100.00
63665;BME280;49820;33.966;73.390;2023-08-12T11:16:37;78475.13;;;24.71;100.00
63665;BME280;49820;33.966;73.390;2023-08-12T11:19:07;78470.00;;;24.76;100.00
63665;BME280;49820;33.966;73.390;2023-08-12T11:21:36;78460.38;;;24.49;100.00
63665;BME280;49820;33.966;73.390;2023-08-12T11:24:08;78455.16;;;24.37;100.00
63665;BME280;49820;33.966;73.390;2023-08-12T11:26:37;78449.00;;;24.08;100.00
63665;BME280;49820;33.966;73.390;2023-08-12T11:29:11;78468.66;;;24.19;100.00
63665;BME280;49820;33.966;73.390;2023-08-12T11:31:49;78451.31;;;23.95;100.00
63665;BME280;49820;33.966;73.390;2023-08-12T11:34:23;78441.97;;;24.11;100.00
63665;BME280;49820;33.966;73.390;2023-08-12T11:36:52;78457.03;;;24.10;100.00
63665;BME280;49820;33.966;73.390;2023-08-12T11:39:21;78425.56;;;23.64;100.00
63665;BME280;49820;33.966;73.390;2023-08-12T11:41:50;78453.66;;;24.57;100.00
63665;BME280;49820;33.966;73.390;2023-08-12T11:44:23;78436.09;;;23.98;100.00
63665;BME280;49820;33.966;73.390;2023-08-12T11:46:52;78445.22;;;23.75;100.00
63665;BME280;49820;33.966;73.390;2023-08-12T11:49:22;78441.28;;;23.83;100.00
63665;BME280;49820;33.966;73.390;2023-08-12T11:51:51;78421.59;;;23.72;100.00
63665;BME280;49820;33.966;73.390;2023-08-12T11:54:20;78444.78;;;23.81;100.00
63665;BME280;49820;33.966;73.390;2023-08-12T11:56:49;78450.81;;;23.54;100.00
63665;BME280;49820;33.966;73.390;2023-08-12T11:59:20;78463.22;;;23.62;100.00
63665;BME280;49820;33.966;73.390;2023-08-12T12:01:50;78412.06;;;23.13;100.00
63665;BME280;49820;33.966;73.390;2023-08-12T12:04:21;78465.75;;;23.25;100.00
63665;BME280;49820;33.966;73.390;2023-08-12T12:19:22;78442.44;;;23.37;100.00
63665;BME280;49820;33.966;73.390;2023-08-12T12:21:53;78434.63;;;23.41;100.00
63665;BME280;49820;33.966;73.390;2023-08-12T12:24:22;78446.19;;;23.42;100.00
63665;BME280;49820;33.966;73.390;2023-08-12T12:26:57;78418.91;;;23.23;100.00
63665;BME280;49820;33.966;73.390;2023-08-12T12:29:26;78415.09;;;23.28;100.00
63665;BME280;49820;33.966;73.390;2023-08-12T12:31:57;78424.19;;;23.54;100.00
63665;BME280;49820;33.966;73.390;2023-08-12T12:34:27;78431.88;;;23.71;100.00
63665;BME280;49820;33.966;73.390;2023-08-12T12:37:06;78426.13;;;23.56;100.00
63665;BME280;49820;33.966;73.390;2023-08-12T12:39:37;78434.22;;;23.47;100.00
63665;BME280;49820;33.966;73.390;2023-08-12T12:42:06;78430.63;;;23.40;100.00
63665;BME280;49820;33.966;73.390;2023-08-12T12:44:35;78412.72;;;23.13;100.00
63665;BME280;49820;33.966;73.390;2023-08-12T12:47:05;78414.53;;;23.17;100.00
63665;BME280;49820;33.966;73.390;2023-08-12T12:49:39;78394.41;;;22.93;100.00
63665;BME280;49820;33.966;73.390;2023-08-12T12:52:10;78423.44;;;22.96;100.00
63665;BME280;49820;33.966;73.390;2023-08-12T12:54:42;78415.13;;;22.68;100.00
63665;BME280;49820;33.966;73.390;2023-08-12T12:57:12;78410.78;;;22.52;100.00
63665;BME280;49820;33.966;73.390;2023-08-12T12:59:41;78410.69;;;22.43;100.00
63665;BME280;49820;33.966;73.390;2023-08-12T13:02:10;78437.06;;;22.56;100.00
63665;BME280;49820;33.966;73.390;2023-08-12T13:04:40;78411.09;;;22.37;100.00
63665;BME280;49820;33.966;73.390;2023-08-12T13:07:10;78430.50;;;22.42;100.00
63665;BME280;49820;33.966;73.390;2023-08-12T13:09:40;78430.53;;;22.31;100.00
63665;BME280;49820;33.966;73.390;2023-08-12T13:12:09;78417.09;;;22.19;100.00
63665;BME280;49820;33.966;73.390;2023-08-12T13:14:38;78404.06;;;22.00;100.00
63665;BME280;49820;33.966;73.390;2023-08-12T13:17:07;78389.81;;;21.78;100.00
63665;BME280;49820;33.966;73.390;2023-08-12T13:19:36;78431.13;;;22.02;100.00
63665;BME280;49820;33.966;73.390;2023-08-12T13:22:06;78426.44;;;21.90;100.00
63665;BME280;49820;33.966;73.390;2023-08-12T13:24:36;78424.28;;;21.71;100.00
63665;BME280;49820;33.966;73.390;2023-08-12T13:27:06;78431.38;;;21.66;100.00
63665;BME280;49820;33.966;73.390;2023-08-12T13:29:36;78409.25;;;21.51;100.00
63665;BME280;49820;33.966;73.390;2023-08-12T13:32:05;78421.81;;;21.24;100.00
63665;BME280;49820;33.966;73.390;2023-08-12T13:34:37;78433.31;;;21.14;100.00
63665;BME280;49820;33.966;73.390;2023-08-12T13:37:10;78421.00;;;21.05;100.00
63665;BME280;49820;33.966;73.390;2023-08-12T14:15:47;78410.94;;;19.44;100.00
63665;BME280;49820;33.966;73.390;2023-08-12T14:18:17;78428.84;;;19.62;100.00
63665;BME280;49820;33.966;73.390;2023-08-12T14:20:46;78433.81;;;19.70;100.00
63665;BME280;49820;33.966;73.390;2023-08-12T14:23:15;78439.47;;;19.66;100.00
63665;BME280;49820;33.966;73.390;2023-08-12T14:25:46;78402.53;;;19.25;100.00
63665;BME280;49820;33.966;73.390;2023-08-12T14:28:16;78441.06;;;19.38;100.00
63665;BME280;49820;33.966;73.390;2023-08-12T14:30:45;78455.56;;;19.45;100.00
63665;BME280;49820;33.966;73.390;2023-08-12T14:33:14;78412.16;;;18.98;100.00
63665;BME280;49820;33.966;73.390;2023-08-12T14:35:43;78452.03;;;19.23;100.00
63665;BME280;49820;33.966;73.390;2023-08-12T14:38:12;78460.38;;;19.32;100.00
63665;BME280;49820;33.966;73.390;2023-08-12T14:40:41;78463.44;;;19.26;100.00
63665;BME280;49820;33.966;73.390;2023-08-12T14:43:10;78467.44;;;19.27;100.00
63665;BME280;49820;33.966;73.390;2023-08-12T14:45:40;78440.75;;;18.95;100.00
63665;BME280;49820;33.966;73.390;2023-08-12T14:48:09;78479.38;;;19.19;100.00
63665;BME280;49820;33.966;73.390;2023-08-12T14:50:39;78466.69;;;19.16;100.00
63665;BME280;49820;33.966;73.390;2023-08-12T14:53:09;78469.84;;;19.08;100.00
63665;BME280;49820;33.966;73.390;2023-08-12T14:55:38;78464.97;;;19.10;100.00
63665;BME280;49820;33.966;73.390;2023-08-12T14:58:07;78457.84;;;18.92;100.00
63665;BME280;49820;33.966;73.390;2023-08-12T15:00:36;78473.44;;;19.04;100.00
63665;BME280;49820;33.966;73.390;2023-08-12T15:03:07;78376.75;;;18.03;100.00
63665;BME280;49820;33.966;73.390;2023-08-12T15:05:41;78492.72;;;18.98;100.00
63665;BME280;49820;33.966;73.390;2023-08-12T15:08:11;78419.03;;;18.34;100.00
63665;BME280;49820;33.966;73.390;2023-08-12T15:10:40;78492.28;;;18.93;100.00
